Time;durP1;ratioP1;P1;durP2;ratioP2;P2;SDS_P1;SDS_P2;PMS_P1;PMS_P2;Temp;Humidity;BMP_temperature;BMP_pressure;BME280_temperature;BME280_humidity;BME280_pressure;Samples;Min_cycle;Max_cycle;Signal;HPM_P1;HPM_P2
2024/01/26 00:02:04;;;;;;;60.47;25.10;;;9.30;99.90;;;;;;5049771;28;20094;-64
2024/01/26 00:04:30;;;;;;;56.45;26.80;;;9.40;99.90;;;;;;5041260;28;20044;-64
2024/01/26 00:06:56;;;;;;;58.53;26.20;;;9.30;99.90;;;;;;5041147;28;20109;-65
2024/01/26 00:09:22;;;;;;;52.70;25.45;;;9.30;99.90;;;;;;5023918;28;20045;-65
2024/01/26 00:11:48;;;;;;;55.70;25.77;;;9.30;99.90;;;;;;5045645;28;20033;-65
2024/01/26 00:14:13;;;;;;;54.95;25.25;;;9.30;99.90;;;;;;5048156;28;20052;-65
2024/01/26 00:16:39;;;;;;;50.08;24.40;;;9.30;99.90;;;;;;5044299;28;20053;-64
2024/01/26 00:19:06;;;;;;;54.45;25.27;;;9.30;99.90;;;;;;5039931;28;20051;-64
2024/01/26 00:21:32;;;;;;;49.58;24.65;;;9.30;99.90;;;;;;5040808;28;20106;-64
2024/01/26 00:23:57;;;;;;;50.85;25.60;;;9.30;99.90;;;;;;5060862;28;20029;-64
2024/01/26 00:26:23;;;;;;;47.28;22.80;;;9.30;99.90;;;;;;5027767;28;20565;-65
2024/01/26 00:28:49;;;;;;;49.05;25.42;;;9.30;99.90;;;;;;5044638;28;20029;-64
2024/01/26 00:31:16;;;;;;;50.30;24.17;;;9.30;99.90;;;;;;5043507;28;20511;-65
2024/01/26 00:33:42;;;;;;;47.38;23.20;;;9.30;99.90;;;;;;5057285;28;20064;-65
2024/01/26 00:36:08;;;;;;;45.58;24.20;;;9.30;99.90;;;;;;5046925;28;20068;-65
2024/01/26 00:38:34;;;;;;;46.22;24.27;;;9.30;99.90;;;;;;5039034;28;20052;-65
2024/01/26 00:40:59;;;;;;;45.05;22.35;;;9.30;99.90;;;;;;5043476;28;20123;-66
2024/01/26 00:43:25;;;;;;;43.53;22.17;;;9.30;99.90;;;;;;5043047;28;20049;-65
2024/01/26 00:45:51;;;;;;;41.17;20.35;;;9.40;99.90;;;;;;5030015;28;20045;-65
2024/01/26 00:48:17;;;;;;;38.47;19.90;;;9.30;99.90;;;;;;5045774;28;20045;-65
2024/01/26 00:50:42;;;;;;;36.78;19.52;;;9.40;99.90;;;;;;5045634;28;20589;-65
2024/01/26 00:53:08;;;;;;;32.38;17.48;;;9.40;99.90;;;;;;5042808;28;20094;-65
2024/01/26 00:55:34;;;;;;;34.15;17.80;;;9.40;99.90;;;;;;5045606;28;20033;-65
2024/01/26 00:58:00;;;;;;;32.90;17.77;;;9.50;99.90;;;;;;5041533;28;20052;-65
2024/01/26 01:00:26;;;;;;;35.60;16.48;;;9.40;99.90;;;;;;5042453;28;20037;-65
2024/01/26 01:02:53;;;;;;;30.85;15.65;;;9.40;99.90;;;;;;5044743;28;20033;-65
2024/01/26 01:05:19;;;;;;;29.58;14.77;;;9.50;99.90;;;;;;5028576;28;20128;-65
2024/01/26 01:07:45;;;;;;;31.15;15.52;;;9.50;99.90;;;;;;5043152;28;20083;-65
2024/01/26 01:10:11;;;;;;;31.35;15.80;;;9.50;99.90;;;;;;5044488;28;20049;-65
2024/01/26 01:12:42;;;;;;;29.75;16.55;;;9.60;99.90;;;;;;5025703;28;20040;-65
2024/01/26 01:15:11;;;;;;;30.67;14.95;;;9.60;99.90;;;;;;5047139;28;20037;-64
2024/01/26 01:17:47;;;;;;;29.20;15.32;;;9.60;99.90;;;;;;5025831;28;20041;-65
2024/01/26 01:20:14;;;;;;;25.85;14.80;;;9.60;99.90;;;;;;5041881;28;20095;-65
2024/01/26 01:22:44;;;;;;;24.05;13.85;;;9.60;99.90;;;;;;5040523;28;20044;-64
2024/01/26 01:25:12;;;;;;;26.48;15.50;;;9.60;99.90;;;;;;5039334;28;20776;-65
2024/01/26 01:27:38;;;;;;;22.42;14.05;;;9.60;99.90;;;;;;5040487;28;20044;-65
2024/01/26 01:30:07;;;;;;;24.40;14.10;;;9.60;99.90;;;;;;5043461;28;20045;-65
2024/01/26 01:32:34;;;;;;;23.45;14.50;;;9.60;99.90;;;;;;5059106;28;20098;-65
2024/01/26 01:35:01;;;;;;;24.60;14.38;;;9.60;99.90;;;;;;5046156;28;20044;-65
2024/01/26 01:37:28;;;;;;;24.33;14.95;;;9.60;99.90;;;;;;5047152;28;20122;-64
2024/01/26 01:39:53;;;;;;;24.85;14.55;;;9.60;99.90;;;;;;5044191;28;20526;-65
2024/01/26 01:42:19;;;;;;;24.92;14.68;;;9.60;99.90;;;;;;5041359;28;20068;-64
2024/01/26 01:44:46;;;;;;;22.35;14.07;;;9.60;99.90;;;;;;5043165;28;20049;-65
2024/01/26 01:47:14;;;;;;;27.95;15.50;;;9.60;99.90;;;;;;5029816;28;20389;-64
2024/01/26 01:49:41;;;;;;;26.10;14.85;;;9.60;99.90;;;;;;5042913;28;20427;-64
2024/01/26 01:52:14;;;;;;;27.80;15.95;;;9.70;99.90;;;;;;5040900;28;20033;-64
2024/01/26 01:54:40;;;;;;;28.70;17.63;;;9.60;99.90;;;;;;5038764;28;20055;-64
2024/01/26 01:57:06;;;;;;;25.27;16.33;;;9.60;99.90;;;;;;5045483;28;20094;-65
2024/01/26 01:59:33;;;;;;;28.88;16.50;;;9.60;99.90;;;;;;5043479;28;20194;-65
2024/01/26 02:01:59;;;;;;;26.67;17.10;;;9.60;99.90;;;;;;5042207;28;20045;-65
2024/01/26 02:04:25;;;;;;;26.63;16.52;;;9.60;99.90;;;;;;5036540;28;20049;-65
2024/01/26 02:07:00;;;;;;;30.52;18.35;;;9.60;99.90;;;;;;5044127;28;20036;-65
2024/01/26 02:09:27;;;;;;;27.25;16.80;;;9.60;99.90;;;;;;5039490;28;20073;-65
2024/01/26 02:11:53;;;;;;;28.55;17.35;;;9.60;99.90;;;;;;5047831;28;20111;-64
2024/01/26 02:14:19;;;;;;;26.98;16.73;;;9.60;99.90;;;;;;5043843;28;20139;-64
2024/01/26 02:17:02;;;;;;;34.05;18.55;;;9.60;99.90;;;;;;5044082;28;20044;-64
2024/01/26 02:19:30;;;;;;;34.17;19.73;;;9.60;99.90;;;;;;5040233;28;20453;-64
2024/01/26 02:21:56;;;;;;;31.38;19.40;;;9.60;99.90;;;;;;5042334;28;20041;-65
2024/01/26 02:24:22;;;;;;;34.63;21.08;;;9.60;99.90;;;;;;5039147;28;20284;-65
2024/01/26 02:26:47;;;;;;;35.00;22.35;;;9.70;99.90;;;;;;5021704;28;20040;-65
2024/01/26 02:29:13;;;;;;;31.25;20.60;;;9.70;99.90;;;;;;5041979;28;20036;-65
2024/01/26 02:31:39;;;;;;;35.45;22.65;;;9.70;99.90;;;;;;5041795;28;20438;-64
2024/01/26 02:34:06;;;;;;;33.97;22.70;;;9.70;99.90;;;;;;5036549;28;20047;-65
2024/01/26 02:36:35;;;;;;;34.25;22.63;;;9.80;99.90;;;;;;5025711;28;20045;-65
2024/01/26 02:39:01;;;;;;;32.67;22.52;;;9.80;99.90;;;;;;5041789;28;20072;-65
2024/01/26 02:41:29;;;;;;;33.20;22.27;;;9.80;99.90;;;;;;5044405;28;20516;-65
2024/01/26 02:43:55;;;;;;;36.28;22.27;;;9.90;99.90;;;;;;5023802;28;20483;-64
2024/01/26 02:46:21;;;;;;;32.58;21.52;;;9.90;99.90;;;;;;5045097;28;20504;-65
2024/01/26 02:48:47;;;;;;;32.42;20.85;;;9.90;99.90;;;;;;5044009;28;20083;-65
2024/01/26 02:51:12;;;;;;;32.08;21.98;;;10.00;99.90;;;;;;5038590;28;20041;-64
2024/01/26 02:53:39;;;;;;;31.02;21.58;;;10.00;99.90;;;;;;5039844;28;20404;-65
2024/01/26 02:56:06;;;;;;;34.97;21.27;;;10.00;99.90;;;;;;5044720;28;20037;-64
2024/01/26 02:58:32;;;;;;;33.90;21.52;;;10.00;99.90;;;;;;5044209;28;20072;-65
2024/01/26 03:00:57;;;;;;;34.33;20.60;;;10.00;99.90;;;;;;5039242;28;20144;-65
2024/01/26 03:03:23;;;;;;;36.42;21.73;;;10.00;99.90;;;;;;5044967;28;20580;-65
2024/01/26 03:05:49;;;;;;;36.10;21.33;;;10.10;99.90;;;;;;5047956;28;20049;-65
2024/01/26 03:08:15;;;;;;;36.47;20.65;;;10.10;99.90;;;;;;5024725;28;20226;-65
2024/01/26 03:10:41;;;;;;;36.28;21.85;;;10.10;99.90;;;;;;5029187;28;20042;-65
2024/01/26 03:13:06;;;;;;;36.88;23.05;;;10.10;99.90;;;;;;5029834;28;20048;-65
2024/01/26 03:15:32;;;;;;;38.90;22.50;;;10.10;99.90;;;;;;5046712;28;20135;-65
2024/01/26 03:17:58;;;;;;;39.38;22.65;;;10.10;99.90;;;;;;5024033;28;20069;-65
2024/01/26 03:20:23;;;;;;;39.28;21.55;;;10.10;99.90;;;;;;5046139;28;20084;-65
2024/01/26 03:22:49;;;;;;;45.65;23.60;;;10.10;99.90;;;;;;5045068;28;20410;-65
2024/01/26 03:25:15;;;;;;;40.97;23.40;;;10.10;99.90;;;;;;5043555;28;20037;-65
2024/01/26 03:27:40;;;;;;;46.63;24.73;;;10.10;99.90;;;;;;5046616;28;20048;-65
2024/01/26 03:30:07;;;;;;;48.20;24.70;;;10.10;99.90;;;;;;5045532;28;20049;-65
2024/01/26 03:32:34;;;;;;;50.28;24.88;;;10.10;99.90;;;;;;5048253;28;20373;-65
2024/01/26 03:34:59;;;;;;;44.13;23.90;;;10.10;99.90;;;;;;5046506;28;20048;-65
2024/01/26 03:37:25;;;;;;;45.45;24.42;;;10.20;99.90;;;;;;5046251;28;20051;-65
2024/01/26 03:39:51;;;;;;;44.60;24.23;;;10.20;99.90;;;;;;5047033;28;20037;-65
2024/01/26 03:42:17;;;;;;;49.55;24.15;;;10.20;99.90;;;;;;5042471;28;20191;-65
2024/01/26 03:44:42;;;;;;;48.97;25.23;;;10.20;99.90;;;;;;5043079;28;20045;-65
2024/01/26 03:47:10;;;;;;;50.08;26.50;;;10.30;99.90;;;;;;5043477;28;20119;-65
2024/01/26 03:49:39;;;;;;;50.72;25.13;;;10.30;99.90;;;;;;5042730;28;20048;-65
2024/01/26 03:52:05;;;;;;;51.67;27.13;;;10.30;99.90;;;;;;5046123;28;20036;-65
2024/01/26 03:54:31;;;;;;;52.30;25.67;;;10.30;99.90;;;;;;5045209;28;20090;-65
2024/01/26 03:57:05;;;;;;;50.67;24.65;;;10.30;99.90;;;;;;5029813;28;20044;-65
2024/01/26 03:59:31;;;;;;;57.03;26.52;;;10.30;99.90;;;;;;5045921;28;20049;-65
2024/01/26 04:01:56;;;;;;;49.50;26.63;;;10.30;99.90;;;;;;5043320;28;20047;-65
2024/01/26 04:04:22;;;;;;;46.63;24.85;;;10.40;99.90;;;;;;5044927;28;20566;-65
2024/01/26 04:06:48;;;;;;;50.92;26.10;;;10.40;99.90;;;;;;5045339;28;20073;-65
2024/01/26 04:09:14;;;;;;;49.28;25.38;;;10.40;99.90;;;;;;5040617;28;20045;-65
2024/01/26 04:11:39;;;;;;;44.45;25.05;;;10.40;99.90;;;;;;5048186;28;20067;-65
2024/01/26 04:14:05;;;;;;;45.65;25.52;;;10.40;99.90;;;;;;5044086;28;20039;-65
2024/01/26 04:16:31;;;;;;;49.17;25.65;;;10.40;99.90;;;;;;5024423;28;20043;-65
2024/01/26 04:18:57;;;;;;;53.58;27.63;;;10.50;99.90;;;;;;5040677;28;20562;-65
2024/01/26 04:21:23;;;;;;;41.65;24.88;;;10.50;99.90;;;;;;5041913;28;20055;-65
2024/01/26 04:23:48;;;;;;;43.00;26.20;;;10.50;99.90;;;;;;5042357;28;20500;-65
2024/01/26 04:26:15;;;;;;;47.10;26.60;;;10.60;99.90;;;;;;5042133;28;20037;-65
2024/01/26 04:28:41;;;;;;;43.25;25.90;;;10.50;99.90;;;;;;5042605;28;20407;-64
2024/01/26 04:31:06;;;;;;;49.90;24.48;;;10.60;99.90;;;;;;5046805;28;20049;-64
2024/01/26 04:33:32;;;;;;;40.55;23.75;;;10.60;99.90;;;;;;5042680;28;20273;-65
2024/01/26 04:35:58;;;;;;;41.70;24.73;;;10.60;99.90;;;;;;5041903;28;20041;-65
2024/01/26 04:38:23;;;;;;;39.28;24.20;;;10.70;99.90;;;;;;5023186;28;20044;-65
2024/01/26 04:40:49;;;;;;;38.55;24.02;;;10.60;99.90;;;;;;5039158;28;20057;-65
2024/01/26 04:43:15;;;;;;;39.58;23.70;;;10.70;99.90;;;;;;5041495;28;20114;-65
2024/01/26 04:45:41;;;;;;;43.10;24.70;;;10.70;99.90;;;;;;5044309;28;20298;-65
2024/01/26 04:48:07;;;;;;;37.05;24.25;;;10.70;99.90;;;;;;5044978;28;20095;-65
2024/01/26 04:50:32;;;;;;;35.83;22.80;;;10.70;99.90;;;;;;5039773;28;20095;-65
2024/01/26 04:52:59;;;;;;;38.45;23.17;;;10.80;99.90;;;;;;5042054;28;20162;-65
2024/01/26 04:55:33;;;;;;;39.90;22.33;;;10.80;99.90;;;;;;5041497;28;20041;-65
2024/01/26 04:57:59;;;;;;;34.97;22.70;;;10.80;99.90;;;;;;5039142;28;20041;-63
2024/01/26 05:00:25;;;;;;;41.80;23.33;;;10.90;99.90;;;;;;5023510;28;20037;-63
2024/01/26 05:02:50;;;;;;;46.25;23.83;;;10.90;99.90;;;;;;5043052;28;20112;-63
2024/01/26 05:05:16;;;;;;;39.70;24.27;;;10.90;99.90;;;;;;5048016;28;20033;-62
2024/01/26 05:07:43;;;;;;;39.80;24.23;;;10.90;99.90;;;;;;5041149;28;20050;-65
2024/01/26 05:10:10;;;;;;;42.08;24.42;;;10.90;99.90;;;;;;5040631;28;20558;-65
2024/01/26 05:12:36;;;;;;;43.05;26.13;;;10.90;99.90;;;;;;5041206;28;20051;-65
2024/01/26 05:15:02;;;;;;;46.08;26.67;;;11.00;99.90;;;;;;5029158;28;20032;-65
2024/01/26 05:17:28;;;;;;;44.25;25.80;;;11.00;99.90;;;;;;5041758;28;20048;-65
2024/01/26 05:19:54;;;;;;;38.78;23.60;;;11.00;99.90;;;;;;5037833;28;20561;-65
2024/01/26 05:22:19;;;;;;;37.15;25.48;;;11.00;99.90;;;;;;5041649;28;20068;-65
2024/01/26 05:24:45;;;;;;;38.90;23.50;;;11.00;99.90;;;;;;5042415;28;20050;-65
2024/01/26 05:27:11;;;;;;;36.47;22.13;;;11.00;99.90;;;;;;5041492;28;20460;-66
2024/01/26 05:29:37;;;;;;;30.40;20.52;;;11.00;99.90;;;;;;5042233;28;20052;-65
2024/01/26 05:32:04;;;;;;;32.92;21.42;;;11.00;99.90;;;;;;5024758;28;20494;-65
2024/01/26 05:34:30;;;;;;;32.67;20.90;;;11.00;99.90;;;;;;5042344;28;20128;-65
2024/01/26 05:36:55;;;;;;;34.22;20.65;;;11.10;99.90;;;;;;5042461;28;20526;-65
2024/01/26 05:39:21;;;;;;;28.90;19.50;;;11.10;99.90;;;;;;5040187;28;20363;-65
2024/01/26 05:41:47;;;;;;;29.13;21.02;;;11.00;99.90;;;;;;5041506;28;20033;-65
2024/01/26 05:44:12;;;;;;;29.80;19.88;;;11.10;99.90;;;;;;5039770;28;20102;-65
2024/01/26 05:46:38;;;;;;;30.27;20.88;;;11.10;99.90;;;;;;5040500;28;20068;-65
2024/01/26 05:49:04;;;;;;;32.63;20.65;;;11.10;99.90;;;;;;5043497;28;20148;-65
2024/01/26 05:51:30;;;;;;;30.38;19.92;;;11.10;99.90;;;;;;5043965;28;20040;-65
2024/01/26 05:53:56;;;;;;;33.40;20.58;;;11.10;99.90;;;;;;5042307;28;20040;-65
2024/01/26 05:56:21;;;;;;;29.85;20.13;;;11.10;99.90;;;;;;5046167;28;20441;-65
2024/01/26 05:58:48;;;;;;;26.75;18.40;;;11.10;99.90;;;;;;5023199;28;20071;-65
2024/01/26 06:01:14;;;;;;;28.83;20.33;;;11.10;99.90;;;;;;5039131;28;20040;-65
2024/01/26 06:03:39;;;;;;;30.67;19.08;;;11.20;99.90;;;;;;5040698;28;20403;-65
2024/01/26 06:06:05;;;;;;;27.60;19.15;;;11.20;99.90;;;;;;5024196;28;20076;-65
2024/01/26 06:08:31;;;;;;;28.65;19.70;;;11.20;99.90;;;;;;5025265;28;20056;-65
2024/01/26 06:10:57;;;;;;;28.40;20.20;;;11.20;99.90;;;;;;5041791;28;20037;-65
2024/01/26 06:13:23;;;;;;;31.15;21.63;;;11.20;99.90;;;;;;5041879;28;20035;-65
2024/01/26 06:15:50;;;;;;;30.45;19.02;;;11.20;99.90;;;;;;5039897;28;20488;-65
2024/01/26 06:18:16;;;;;;;25.92;19.77;;;11.30;99.90;;;;;;5038255;28;20489;-65
2024/01/26 06:20:42;;;;;;;30.15;20.33;;;11.30;99.90;;;;;;5036573;28;20085;-65
2024/01/26 06:23:08;;;;;;;27.52;19.48;;;11.30;99.90;;;;;;5023528;28;20287;-65
2024/01/26 06:25:33;;;;;;;24.63;17.70;;;11.40;99.90;;;;;;5040616;28;20118;-65
2024/01/26 07:09:19;;;;;;;20.20;14.40;;;11.50;99.90;;;;;;5016002;28;20496;-65
2024/01/26 07:11:45;;;;;;;19.85;14.85;;;11.40;99.90;;;;;;5019378;28;20135;-65
2024/01/26 07:14:10;;;;;;;17.85;13.93;;;11.50;99.90;;;;;;5032056;28;20124;-65
2024/01/26 07:16:36;;;;;;;20.88;14.05;;;11.50;99.90;;;;;;5021460;28;20419;-65
2024/01/26 07:19:02;;;;;;;20.10;14.25;;;11.40;99.90;;;;;;5019506;28;20056;-66
2024/01/26 07:21:28;;;;;;;16.52;13.23;;;11.40;99.90;;;;;;5005868;28;20155;-66
2024/01/26 07:23:53;;;;;;;18.55;13.95;;;11.40;99.90;;;;;;5041818;28;20067;-65
2024/01/26 07:26:20;;;;;;;15.38;12.30;;;11.30;99.90;;;;;;5024101;28;20510;-65
2024/01/26 07:28:47;;;;;;;17.55;13.13;;;11.30;99.90;;;;;;5026497;28;20064;-65
2024/01/26 07:31:12;;;;;;;21.23;13.27;;;11.30;99.90;;;;;;5023858;28;20111;-65
2024/01/26 07:33:38;;;;;;;17.55;13.20;;;11.20;99.90;;;;;;5025709;28;20524;-65
2024/01/26 07:36:04;;;;;;;18.58;13.20;;;11.20;99.90;;;;;;5021422;28;20473;-65
2024/01/26 07:38:30;;;;;;;18.52;14.23;;;11.20;99.90;;;;;;5033591;28;20524;-65
2024/01/26 07:40:57;;;;;;;18.10;13.02;;;11.10;99.90;;;;;;5032729;28;20084;-65
2024/01/26 07:43:23;;;;;;;18.45;13.85;;;11.10;99.90;;;;;;5037725;28;20037;-65
2024/01/26 07:45:49;;;;;;;21.45;14.15;;;11.10;99.90;;;;;;5001741;28;20037;-65
2024/01/26 07:48:15;;;;;;;21.73;15.57;;;11.00;99.90;;;;;;5011331;28;20036;-65
2024/01/26 07:50:41;;;;;;;21.85;15.13;;;11.00;99.90;;;;;;5025777;28;20045;-65
2024/01/26 07:53:08;;;;;;;18.30;14.43;;;11.00;99.90;;;;;;5032869;28;20071;-65
2024/01/26 07:55:34;;;;;;;20.33;13.93;;;11.00;99.90;;;;;;5016540;28;20053;-65
2024/01/26 07:58:00;;;;;;;18.25;13.77;;;10.90;99.90;;;;;;5029586;28;20044;-65
2024/01/26 08:00:26;;;;;;;20.23;14.65;;;10.90;99.90;;;;;;5023312;28;20041;-65
2024/01/26 08:02:52;;;;;;;18.63;13.50;;;10.90;99.90;;;;;;5029825;28;20039;-65
2024/01/26 08:05:18;;;;;;;20.80;13.18;;;11.00;99.90;;;;;;5025711;28;20103;-65
2024/01/26 08:07:45;;;;;;;19.55;13.40;;;11.00;99.90;;;;;;5028771;28;20707;-65
2024/01/26 08:10:10;;;;;;;18.98;12.05;;;11.10;99.90;;;;;;5007426;28;20433;-65
2024/01/26 08:12:37;;;;;;;18.45;11.20;;;11.10;99.90;;;;;;5029991;28;20407;-65
2024/01/26 08:15:03;;;;;;;16.73;9.98;;;11.20;99.90;;;;;;5025172;28;20130;-65
2024/01/26 08:17:29;;;;;;;23.48;10.95;;;11.20;99.90;;;;;;5023077;28;20055;-65
2024/01/26 08:20:07;;;;;;;20.63;9.38;;;11.30;99.90;;;;;;5022281;28;20548;-65
2024/01/26 08:22:38;;;;;;;17.85;8.52;;;11.30;99.90;;;;;;5042619;28;20064;-65
2024/01/26 08:25:05;;;;;;;17.30;7.78;;;11.30;99.90;;;;;;5026339;28;20044;-65
2024/01/26 08:27:31;;;;;;;25.20;7.80;;;11.30;99.90;;;;;;5025974;28;20045;-65
2024/01/26 08:29:56;;;;;;;20.55;7.72;;;11.30;99.90;;;;;;5019124;28;20056;-65
2024/01/26 08:32:22;;;;;;;23.27;8.15;;;11.30;99.90;;;;;;5003594;28;20037;-65
2024/01/26 08:34:48;;;;;;;20.42;7.70;;;11.30;99.90;;;;;;5030775;28;20048;-65
2024/01/26 08:37:13;;;;;;;25.88;7.53;;;11.30;99.90;;;;;;5006431;28;20170;-65
2024/01/26 08:39:44;;;;;;;24.33;6.35;;;11.30;99.90;;;;;;5045090;28;20049;-65
2024/01/26 08:42:10;;;;;;;22.15;5.88;;;11.30;99.90;;;;;;5028648;28;20168;-65
2024/01/26 08:44:39;;;;;;;21.55;6.10;;;11.30;99.90;;;;;;5029996;28;20521;-65
2024/01/26 08:47:05;;;;;;;23.75;7.50;;;11.30;99.90;;;;;;5025845;28;21750;-65
2024/01/26 08:49:30;;;;;;;18.88;6.10;;;11.30;99.90;;;;;;5024025;28;20438;-65
2024/01/26 08:51:59;;;;;;;15.65;5.03;;;11.30;99.90;;;;;;5024908;28;20039;-65
2024/01/26 08:54:25;;;;;;;15.25;4.93;;;11.20;99.90;;;;;;5044288;28;20438;-65
2024/01/26 08:56:50;;;;;;;11.70;2.85;;;10.90;99.90;;;;;;5044313;28;20025;-65
2024/01/26 08:59:16;;;;;;;14.43;2.80;;;10.60;99.90;;;;;;5043386;28;20128;-65
2024/01/26 09:01:42;;;;;;;14.27;2.70;;;10.40;99.90;;;;;;5024682;28;20032;-65
2024/01/26 09:04:08;;;;;;;12.52;2.67;;;10.20;99.90;;;;;;5027523;28;20420;-65
2024/01/26 09:06:37;;;;;;;12.10;3.58;;;10.20;99.90;;;;;;5034017;28;20052;-65
2024/01/26 09:09:04;;;;;;;11.95;4.43;;;10.00;99.90;;;;;;5008176;28;20058;-65
2024/01/26 09:11:30;;;;;;;12.68;3.35;;;10.00;99.90;;;;;;5011099;28;20033;-65
2024/01/26 09:13:59;;;;;;;13.05;2.22;;;10.00;99.90;;;;;;5036773;28;20410;-65
2024/01/26 09:16:25;;;;;;;18.17;4.22;;;9.90;99.90;;;;;;5005483;28;20048;-65
2024/01/26 09:18:51;;;;;;;15.18;3.08;;;10.00;99.90;;;;;;5039966;28;20052;-65
2024/01/26 09:21:18;;;;;;;19.50;4.80;;;9.90;99.90;;;;;;5022511;28;20048;-64
2024/01/26 09:23:43;;;;;;;19.75;3.50;;;9.90;99.90;;;;;;5022354;28;20079;-65
2024/01/26 09:26:10;;;;;;;23.92;3.83;;;9.90;99.90;;;;;;5039239;28;20033;-65
2024/01/26 09:28:38;;;;;;;21.45;3.22;;;9.80;99.90;;;;;;5024229;28;20048;-65
2024/01/26 09:31:04;;;;;;;17.90;3.33;;;9.80;99.90;;;;;;5030334;28;20172;-65
2024/01/26 09:33:30;;;;;;;17.27;3.60;;;9.80;99.90;;;;;;5044563;28;20082;-65
2024/01/26 09:35:56;;;;;;;21.98;3.70;;;9.70;99.90;;;;;;5027032;28;20913;-65
2024/01/26 09:38:23;;;;;;;22.98;4.72;;;9.70;99.90;;;;;;5024372;28;20714;-65
2024/01/26 09:40:49;;;;;;;21.83;3.90;;;9.70;99.90;;;;;;5044608;28;20407;-65
2024/01/26 09:43:15;;;;;;;23.05;3.65;;;9.60;99.90;;;;;;5009843;28;20749;-65
2024/01/26 09:45:42;;;;;;;23.92;4.38;;;9.60;99.90;;;;;;5012273;28;20084;-65
2024/01/26 09:48:09;;;;;;;16.38;3.22;;;9.60;99.90;;;;;;5022673;28;20052;-65
2024/01/26 09:50:36;;;;;;;19.55;3.70;;;9.60;99.90;;;;;;5005386;28;20033;-65
2024/01/26 09:53:05;;;;;;;14.07;2.88;;;9.60;99.90;;;;;;5026633;28;20581;-65
2024/01/26 09:55:34;;;;;;;22.25;4.00;;;9.60;99.90;;;;;;5041006;28;20048;-65
2024/01/26 09:58:00;;;;;;;21.70;3.63;;;9.60;99.90;;;;;;5025628;28;20160;-65
2024/01/26 10:00:26;;;;;;;25.58;4.15;;;9.60;99.90;;;;;;5021418;28;20144;-65
2024/01/26 10:02:52;;;;;;;16.02;3.80;;;9.60;99.90;;;;;;5043715;28;20039;-65
2024/01/26 10:05:21;;;;;;;32.75;5.07;;;9.60;99.90;;;;;;5027980;28;20187;-65
2024/01/26 10:07:47;;;;;;;26.75;4.45;;;9.60;99.90;;;;;;5018988;28;20052;-65
2024/01/26 10:10:13;;;;;;;22.58;4.57;;;9.60;99.90;;;;;;5017732;28;20045;-65
2024/01/26 10:12:41;;;;;;;22.55;4.43;;;9.60;99.90;;;;;;5029198;28;20037;-65
2024/01/26 10:15:11;;;;;;;18.83;4.28;;;9.60;99.90;;;;;;5025971;28;20047;-65
2024/01/26 10:17:40;;;;;;;19.00;3.75;;;9.60;99.90;;;;;;5008441;28;20102;-65
2024/01/26 10:20:14;;;;;;;24.02;4.25;;;9.60;99.90;;;;;;5042683;28;20048;-65
2024/01/26 10:22:41;;;;;;;22.55;3.95;;;9.50;99.90;;;;;;5012681;28;20039;-65
2024/01/26 10:25:07;;;;;;;17.73;3.50;;;9.50;99.90;;;;;;5028083;28;20177;-65
2024/01/26 10:27:34;;;;;;;26.55;4.70;;;9.50;99.90;;;;;;5006795;28;20048;-65
2024/01/26 10:30:00;;;;;;;24.08;4.72;;;9.40;99.90;;;;;;5022850;28;20084;-65
2024/01/26 10:32:30;;;;;;;19.40;3.35;;;9.40;99.90;;;;;;5012178;28;20096;-65
2024/01/26 10:35:01;;;;;;;26.42;4.55;;;9.40;99.90;;;;;;5021129;28;20037;-65
2024/01/26 10:37:34;;;;;;;24.20;4.28;;;9.40;99.90;;;;;;5019234;28;20385;-65
2024/01/26 10:40:01;;;;;;;22.60;3.55;;;9.40;99.90;;;;;;5037937;28;20040;-65
2024/01/26 10:42:32;;;;;;;21.08;4.45;;;9.50;99.90;;;;;;5024739;28;20538;-65
2024/01/26 10:45:00;;;;;;;20.95;3.50;;;9.50;99.90;;;;;;5022956;28;20800;-65
2024/01/26 10:47:26;;;;;;;23.08;3.90;;;9.50;99.90;;;;;;5023263;28;20064;-65
2024/01/26 10:49:57;;;;;;;16.10;3.38;;;9.50;99.90;;;;;;5023049;28;20077;-65
2024/01/26 10:52:24;;;;;;;24.50;4.93;;;9.40;99.90;;;;;;5022273;28;20776;-64
2024/01/26 10:54:51;;;;;;;20.92;5.00;;;9.50;99.90;;;;;;5038956;28;20033;-65
2024/01/26 10:57:19;;;;;;;21.02;3.70;;;9.60;99.90;;;;;;5039154;28;20502;-65
2024/01/26 10:59:46;;;;;;;21.50;4.55;;;9.60;99.90;;;;;;5023278;28;20107;-65
2024/01/26 11:02:27;;;;;;;15.43;3.42;;;9.70;99.90;;;;;;5025039;28;20119;-65
2024/01/26 11:04:53;;;;;;;18.27;4.50;;;9.70;99.90;;;;;;5027087;28;20052;-65
2024/01/26 11:07:23;;;;;;;18.73;4.65;;;9.70;99.90;;;;;;5022800;28;20049;-65
2024/01/26 11:09:51;;;;;;;19.45;3.88;;;9.70;99.90;;;;;;5020208;28;20445;-64
2024/01/26 11:12:29;;;;;;;20.90;3.78;;;9.70;99.90;;;;;;5026357;28;20073;-65
2024/01/26 11:15:15;;;;;;;18.40;3.42;;;9.80;99.90;;;;;;5021810;28;20403;-64
2024/01/26 11:17:56;;;;;;;15.63;2.97;;;9.70;99.90;;;;;;5007142;28;20631;-65
2024/01/26 11:20:28;;;;;;;17.42;3.55;;;9.70;99.90;;;;;;5007909;28;20408;-65
2024/01/26 11:23:01;;;;;;;22.10;4.53;;;9.60;99.90;;;;;;5021451;28;20060;-65
2024/01/26 11:25:45;;;;;;;19.67;3.60;;;9.60;99.90;;;;;;5028436;28;20425;-65
2024/01/26 11:28:25;;;;;;;17.40;3.92;;;9.50;99.90;;;;;;5027223;28;20120;-65
2024/01/26 11:30:53;;;;;;;17.88;2.97;;;9.40;99.90;;;;;;5044903;28;20037;-65
2024/01/26 11:33:24;;;;;;;18.88;3.85;;;9.40;99.90;;;;;;5032395;28;20095;-65
2024/01/26 11:36:01;;;;;;;19.30;4.35;;;9.30;99.90;;;;;;5014208;28;20122;-65
2024/01/26 11:38:27;;;;;;;15.32;3.90;;;9.30;99.90;;;;;;5008711;28;20060;-65
2024/01/26 11:40:57;;;;;;;17.92;4.10;;;9.30;99.90;;;;;;5027343;28;20045;-65
2024/01/26 11:43:27;;;;;;;17.67;3.63;;;9.20;99.90;;;;;;5029973;28;20090;-65
2024/01/26 11:45:55;;;;;;;17.35;3.78;;;9.20;99.90;;;;;;5033271;28;20094;-65
2024/01/26 11:48:21;;;;;;;32.50;8.38;;;9.20;99.90;;;;;;5032115;28;20073;-65
2024/01/26 11:50:47;;;;;;;25.92;6.95;;;9.20;99.90;;;;;;5027470;28;20511;-64
2024/01/26 11:53:15;;;;;;;25.95;5.90;;;9.10;99.90;;;;;;5049755;28;20051;-65
2024/01/26 11:55:42;;;;;;;25.80;5.65;;;9.10;99.90;;;;;;5024039;28;20112;-65
2024/01/26 11:58:09;;;;;;;27.60;5.30;;;9.00;99.90;;;;;;5019156;28;20463;-65
2024/01/26 12:00:35;;;;;;;31.00;4.80;;;8.90;99.90;;;;;;5021235;28;20051;-65
2024/01/26 12:03:14;;;;;;;23.63;5.80;;;8.90;99.90;;;;;;5022473;28;20037;-64
2024/01/26 12:05:40;;;;;;;18.95;5.10;;;8.80;99.90;;;;;;5011456;28;20041;-65
2024/01/26 12:08:06;;;;;;;25.45;3.97;;;8.90;99.90;;;;;;5046271;28;20412;-65
2024/01/26 12:10:34;;;;;;;21.38;5.30;;;8.90;99.90;;;;;;5024001;28;20569;-65
2024/01/26 12:13:00;;;;;;;19.48;4.57;;;8.80;99.90;;;;;;5044901;28;20114;-65
2024/01/26 12:15:30;;;;;;;23.45;5.35;;;8.70;99.90;;;;;;5047420;28;20049;-65
2024/01/26 12:18:00;;;;;;;18.15;4.47;;;8.60;99.90;;;;;;5028269;28;20041;-65
2024/01/26 12:20:26;;;;;;;18.55;4.90;;;8.40;99.90;;;;;;5045667;28;20060;-65
2024/01/26 12:22:55;;;;;;;24.77;4.82;;;8.20;99.90;;;;;;5042583;28;20377;-65
2024/01/26 12:25:23;;;;;;;26.77;5.05;;;8.10;99.90;;;;;;5027402;28;20045;-65
2024/01/26 12:27:49;;;;;;;19.90;4.15;;;8.10;99.90;;;;;;5020037;28;20040;-65
2024/01/26 12:30:16;;;;;;;25.55;4.93;;;7.90;99.90;;;;;;5039218;28;20132;-65
2024/01/26 12:32:41;;;;;;;16.05;3.13;;;8.00;99.90;;;;;;5026802;28;20032;-65
2024/01/26 12:35:08;;;;;;;19.45;3.47;;;8.10;99.90;;;;;;5022355;28;20473;-65
2024/01/26 12:37:33;;;;;;;16.30;3.00;;;8.20;99.90;;;;;;5028922;28;20078;-64
2024/01/26 12:39:59;;;;;;;20.73;4.38;;;8.30;99.90;;;;;;5028039;28;20049;-65
2024/01/26 12:42:25;;;;;;;11.85;2.42;;;8.40;99.90;;;;;;5024372;28;20431;-65
2024/01/26 12:44:50;;;;;;;23.83;3.08;;;8.60;99.90;;;;;;5041108;28;20053;-64
2024/01/26 12:47:16;;;;;;;13.70;3.55;;;8.70;99.90;;;;;;5041493;28;20067;-65
2024/01/26 12:49:42;;;;;;;16.08;2.78;;;8.70;99.90;;;;;;5041557;28;20033;-65
2024/01/26 12:52:10;;;;;;;16.70;3.33;;;8.70;99.90;;;;;;5042231;28;20033;-65
2024/01/26 12:54:35;;;;;;;11.70;2.88;;;8.70;99.90;;;;;;5042872;28;20041;-65
2024/01/26 12:57:02;;;;;;;9.98;2.22;;;8.60;99.90;;;;;;5011705;28;20053;-65
2024/01/26 12:59:30;;;;;;;12.45;2.78;;;8.40;99.90;;;;;;5028839;28;20037;-64
2024/01/26 13:01:56;;;;;;;11.68;2.40;;;8.40;99.90;;;;;;5020737;28;20044;-65
2024/01/26 13:04:22;;;;;;;15.80;2.35;;;8.40;99.90;;;;;;5040937;28;20036;-64
2024/01/26 13:06:48;;;;;;;11.77;2.38;;;8.30;99.90;;;;;;5045227;28;20501;-64
2024/01/26 13:09:15;;;;;;;14.20;1.88;;;8.30;99.90;;;;;;5023161;28;20132;-64
2024/01/26 13:11:41;;;;;;;12.98;2.10;;;8.30;99.90;;;;;;5044648;28;20048;-65
2024/01/26 13:14:06;;;;;;;14.80;2.35;;;8.20;99.90;;;;;;5044758;28;20045;-65
2024/01/26 13:16:33;;;;;;;8.85;2.35;;;8.20;99.90;;;;;;5023882;28;20040;-65